createdAt,value
2022-08-17T00:00:02.015Z,82.90
2022-08-17T00:03:04.553Z,82.90
2022-08-17T00:05:33.736Z,82.90
2022-08-17T00:08:01.175Z,84.20
2022-08-17T00:10:29.275Z,83.10
2022-08-17T00:13:00.213Z,83.40
2022-08-17T00:15:27.697Z,83.50
2022-08-17T00:17:55.089Z,83.80
2022-08-17T00:20:34.911Z,83.70
2022-08-17T00:23:09.359Z,83.80
2022-08-17T00:25:37.201Z,83.90
2022-08-17T00:28:06.450Z,84.50
2022-08-17T00:30:51.182Z,84.60
2022-08-17T00:33:23.873Z,84.70
2022-08-17T00:35:52.026Z,85.20
2022-08-17T00:38:20.345Z,85.30
2022-08-17T00:40:52.005Z,85.10
2022-08-17T00:43:28.886Z,85.00
2022-08-17T00:45:57.545Z,85.00
2022-08-17T00:48:29.196Z,85.10
2022-08-17T00:51:26.181Z,85.60
2022-08-17T00:54:20.837Z,86.00
2022-08-17T00:56:54.502Z,86.20
2022-08-17T00:59:26.101Z,86.30
2022-08-17T01:01:54.125Z,86.30
2022-08-17T01:04:23.092Z,86.20
2022-08-17T01:06:51.993Z,86.20
2022-08-17T01:09:20.799Z,86.50
2022-08-17T01:11:52.604Z,86.60
2022-08-17T01:14:25.137Z,86.60
2022-08-17T01:16:55.261Z,86.80
2022-08-17T01:19:34.579Z,87.00
2022-08-17T01:22:17.157Z,87.50
2022-08-17T01:24:52.106Z,87.60
2022-08-17T01:27:21.436Z,87.60
2022-08-17T01:29:53.302Z,88.00
2022-08-17T01:32:20.917Z,88.40
2022-08-17T01:34:50.648Z,88.60
2022-08-17T01:37:20.972Z,89.50
2022-08-17T01:39:55.587Z,89.20
2022-08-17T01:42:40.138Z,88.50
2022-08-17T01:45:17.056Z,88.90
2022-08-17T01:47:44.506Z,88.80
2022-08-17T01:50:16.256Z,89.50
2022-08-17T01:52:49.720Z,90.00
2022-08-17T01:55:24.608Z,89.60
2022-08-17T01:57:54.656Z,90.00
2022-08-17T02:00:22.666Z,90.00
2022-08-17T02:02:50.157Z,90.10
2022-08-17T02:05:18.653Z,90.20
2022-08-17T02:07:59.945Z,90.10
2022-08-17T02:10:34.089Z,90.30
2022-08-17T02:13:04.575Z,90.60
2022-08-17T02:15:32.517Z,90.60
2022-08-17T02:17:59.904Z,90.40
2022-08-17T02:20:42.079Z,90.30
2022-08-17T02:23:12.399Z,90.10
2022-08-17T02:25:42.735Z,90.30
2022-08-17T02:28:11.473Z,90.50
2022-08-17T02:31:01.127Z,90.40
2022-08-17T02:33:42.634Z,90.40
2022-08-17T02:36:13.223Z,90.60
2022-08-17T02:38:41.800Z,90.40
2022-08-17T02:41:09.770Z,90.50
2022-08-17T02:43:37.394Z,90.60
2022-08-17T02:46:04.748Z,90.80
2022-08-17T02:48:32.171Z,91.00
2022-08-17T02:51:00.931Z,91.10
2022-08-17T02:53:33.665Z,90.90
2022-08-17T02:56:04.826Z,91.30
2022-08-17T02:58:35.301Z,91.50
2022-08-17T03:01:08.564Z,91.70
2022-08-17T03:03:38.509Z,91.70
2022-08-17T03:06:07.926Z,91.70
2022-08-17T03:08:37.740Z,91.90
2022-08-17T03:11:05.344Z,92.20
2022-08-17T03:13:32.703Z,91.80
2022-08-17T03:16:00.234Z,91.70
2022-08-17T03:18:28.329Z,91.90
2022-08-17T03:20:58.933Z,92.00
2022-08-17T03:23:29.579Z,92.30
2022-08-17T03:25:58.720Z,92.30
2022-08-17T03:28:27.747Z,92.40
2022-08-17T03:30:55.249Z,92.30
2022-08-17T03:33:22.882Z,92.40
2022-08-17T03:35:51.076Z,92.40
2022-08-17T03:38:19.363Z,92.50
2022-08-17T03:40:56.260Z,92.40
2022-08-17T03:43:25.843Z,92.60
2022-08-17T03:46:28.386Z,92.60
2022-08-17T03:49:17.317Z,92.80
2022-08-17T03:52:04.751Z,92.80
2022-08-17T03:54:50.752Z,92.90
2022-08-17T03:57:19.418Z,93.30
2022-08-17T03:59:47.722Z,93.30
2022-08-17T04:02:22.103Z,93.30
2022-08-17T04:04:51.246Z,93.40
2022-08-17T04:07:25.349Z,93.40
2022-08-17T04:09:53.078Z,93.40
2022-08-17T04:12:23.122Z,93.60
2022-08-17T04:14:52.961Z,93.50
2022-08-17T04:17:24.486Z,93.70
2022-08-17T04:19:52.649Z,93.80
2022-08-17T04:22:32.048Z,93.60
2022-08-17T04:25:16.375Z,93.60
2022-08-17T04:27:44.968Z,93.30
2022-08-17T04:30:13.461Z,93.20
2022-08-17T04:33:07.289Z,93.00
2022-08-17T04:35:42.152Z,93.10
2022-08-17T04:38:12.365Z,93.30
2022-08-17T04:40:58.830Z,93.60
2022-08-17T04:43:27.802Z,93.70
2022-08-17T04:46:00.758Z,93.70
2022-08-17T04:48:36.936Z,93.60
2022-08-17T04:51:14.306Z,93.30
2022-08-17T04:53:44.652Z,93.20
2022-08-17T04:56:16.758Z,93.60
2022-08-17T04:58:46.541Z,92.90
2022-08-17T05:01:15.524Z,92.90
2022-08-17T05:03:44.548Z,92.80
2022-08-17T05:06:12.074Z,92.90
2022-08-17T05:08:40.025Z,92.70
2022-08-17T05:11:07.619Z,92.10
2022-08-17T05:13:35.064Z,91.80
2022-08-17T05:16:03.993Z,91.30
2022-08-17T05:18:32.187Z,91.00
2022-08-17T05:21:00.262Z,90.70
2022-08-17T05:23:41.681Z,90.70
2022-08-17T05:26:25.414Z,90.30
2022-08-17T05:29:02.855Z,90.20
2022-08-17T05:31:30.912Z,89.70
2022-08-17T05:33:58.326Z,89.30
2022-08-17T05:36:42.949Z,89.60
2022-08-17T05:39:16.494Z,88.20
2022-08-17T05:41:48.657Z,87.00
2022-08-17T05:44:17.301Z,86.00
2022-08-17T05:46:51.725Z,86.00
2022-08-17T05:49:27.407Z,85.50
2022-08-17T05:52:08.518Z,83.30
2022-08-17T05:54:41.428Z,82.90
2022-08-17T05:57:24.104Z,82.50
2022-08-17T06:00:30.182Z,81.80
2022-08-17T06:03:29.186Z,81.00
2022-08-17T06:06:31.116Z,80.00
2022-08-17T06:08:58.919Z,79.60
2022-08-17T06:11:38.262Z,78.70
2022-08-17T06:14:49.373Z,78.00
2022-08-17T06:17:22.270Z,77.10
2022-08-17T06:19:54.985Z,77.00
2022-08-17T06:22:31.560Z,76.10
2022-08-17T06:25:04.856Z,75.40
2022-08-17T06:27:42.949Z,75.20
2022-08-17T06:30:21.464Z,74.60
2022-08-17T06:32:51.400Z,74.10
2022-08-17T06:35:52.398Z,73.80
2022-08-17T06:38:46.375Z,73.10
2022-08-17T06:41:46.534Z,72.40
2022-08-17T06:44:42.189Z,71.10
2022-08-17T06:47:49.501Z,71.50
2022-08-17T06:50:48.476Z,72.50
2022-08-17T06:53:36.378Z,71.90
2022-08-17T06:56:22.436Z,71.30
2022-08-17T06:58:55.975Z,70.60
2022-08-17T07:01:28.597Z,70.20
2022-08-17T07:04:17.518Z,69.20
2022-08-17T07:07:00.055Z,68.00
2022-08-17T07:09:36.122Z,68.60
2022-08-17T07:12:15.526Z,69.50
2022-08-17T07:14:52.011Z,68.70
2022-08-17T07:17:22.216Z,68.10
2022-08-17T07:20:18.152Z,68.20
2022-08-17T07:23:09.063Z,67.70
2022-08-17T07:25:36.639Z,66.30
2022-08-17T07:28:07.079Z,66.70
2022-08-17T07:30:55.394Z,67.40
2022-08-17T07:33:29.438Z,66.40
2022-08-17T07:35:58.591Z,65.50
2022-08-17T07:38:28.709Z,65.00
2022-08-17T07:41:02.852Z,64.10
2022-08-17T07:43:32.333Z,65.40
2022-08-17T07:46:24.222Z,64.80
2022-08-17T07:48:57.085Z,63.90
2022-08-17T07:51:34.144Z,63.30
2022-08-17T07:54:22.777Z,64.10
2022-08-17T07:56:54.999Z,63.90
2022-08-17T07:59:41.240Z,63.60
2022-08-17T08:02:40.580Z,63.00
2022-08-17T08:05:25.138Z,63.20
2022-08-17T08:08:49.293Z,62.30
2022-08-17T08:11:33.780Z,62.20
2022-08-17T08:14:28.321Z,61.90
2022-08-17T08:17:09.410Z,61.90
2022-08-17T08:19:37.093Z,61.00
2022-08-17T08:22:19.189Z,59.80
2022-08-17T08:24:49.317Z,60.00
2022-08-17T08:27:35.929Z,60.20
2022-08-17T08:30:08.498Z,60.50
2022-08-17T08:32:54.343Z,59.10
2022-08-17T08:35:37.808Z,58.60
2022-08-17T08:38:11.278Z,57.80
2022-08-17T08:41:18.973Z,58.60
2022-08-17T08:43:58.752Z,58.60
2022-08-17T08:46:38.345Z,58.10
2022-08-17T08:50:02.006Z,57.90
2022-08-17T08:52:40.519Z,58.00
2022-08-17T08:55:14.722Z,57.70
2022-08-17T08:57:53.057Z,58.10
2022-08-17T09:00:23.325Z,57.70
2022-08-17T09:03:10.120Z,56.60
2022-08-17T09:05:58.721Z,57.00
2022-08-17T09:09:02.245Z,56.20
2022-08-17T09:11:35.935Z,56.60
2022-08-17T09:14:43.168Z,56.50
2022-08-17T09:17:36.040Z,56.40
2022-08-17T09:20:27.400Z,56.60
2022-08-17T09:23:08.308Z,55.10
2022-08-17T09:25:50.072Z,55.60
2022-08-17T09:28:24.558Z,55.40
2022-08-17T09:30:55.991Z,56.90
2022-08-17T09:33:28.179Z,57.00
2022-08-17T09:36:11.051Z,56.30
2022-08-17T09:38:56.945Z,56.00
2022-08-17T09:42:01.820Z,56.10
2022-08-17T09:44:54.067Z,55.40
2022-08-17T09:47:31.956Z,55.30
2022-08-17T09:50:11.867Z,55.60
2022-08-17T09:52:43.814Z,55.30
2022-08-17T09:55:11.475Z,55.30
2022-08-17T09:58:29.012Z,55.50
2022-08-17T10:01:03.980Z,56.80
2022-08-17T10:04:05.883Z,56.20
2022-08-17T10:06:40.529Z,55.50
2022-08-17T10:09:22.774Z,56.20
2022-08-17T10:12:17.402Z,55.80
2022-08-17T10:15:17.293Z,56.00
2022-08-17T10:18:30.586Z,55.20
2022-08-17T10:21:29.973Z,56.50
2022-08-17T10:24:34.037Z,54.70
2022-08-17T10:27:05.289Z,54.60
2022-08-17T10:29:48.911Z,54.70
2022-08-17T10:32:46.267Z,53.90
2022-08-17T10:35:34.683Z,54.70
2022-08-17T10:38:24.444Z,54.00
2022-08-17T10:41:05.913Z,54.40
2022-08-17T10:43:55.840Z,54.10
2022-08-17T10:47:06.636Z,54.10
2022-08-17T10:49:44.697Z,54.80
2022-08-17T10:52:24.928Z,55.10
2022-08-17T10:54:54.883Z,54.70
2022-08-17T10:57:42.835Z,54.20
2022-08-17T11:00:16.251Z,53.60
2022-08-17T11:02:50.617Z,53.60
2022-08-17T11:05:24.501Z,54.00
2022-08-17T11:08:17.387Z,51.70
2022-08-17T11:10:57.080Z,51.30
2022-08-17T11:13:33.978Z,52.40
2022-08-17T11:16:16.534Z,51.70
2022-08-17T11:18:49.185Z,51.10
2022-08-17T11:21:25.466Z,50.60
2022-08-17T11:24:12.234Z,51.20
2022-08-17T11:26:47.788Z,51.70
2022-08-17T11:29:29.645Z,52.10
2022-08-17T11:32:05.424Z,51.50
2022-08-17T11:34:33.689Z,51.50
2022-08-17T11:37:51.715Z,50.40
2022-08-17T11:40:27.563Z,49.30
2022-08-17T11:43:07.823Z,50.50
2022-08-17T11:45:47.818Z,49.30
2022-08-17T11:48:48.789Z,49.30
2022-08-17T11:51:34.502Z,48.00
2022-08-17T11:54:31.823Z,49.40
2022-08-17T11:56:53.963Z,48.80
2022-08-17T11:59:33.427Z,48.10
2022-08-17T12:02:02.796Z,47.90
2022-08-17T12:04:33.989Z,46.30
2022-08-17T12:07:10.714Z,47.00
2022-08-17T12:09:46.340Z,47.20
2022-08-17T12:12:33.645Z,46.40
2022-08-17T12:15:10.602Z,47.00
2022-08-17T12:17:42.634Z,47.40
2022-08-17T12:20:14.627Z,47.00
2022-08-17T12:23:01.324Z,46.00
2022-08-17T12:25:56.566Z,46.80
2022-08-17T12:28:30.524Z,46.80
2022-08-17T12:31:13.846Z,47.40
2022-08-17T12:33:46.940Z,46.70
2022-08-17T12:36:17.279Z,47.50
2022-08-17T12:39:12.898Z,46.70
2022-08-17T12:41:47.314Z,47.80
2022-08-17T12:44:49.893Z,48.10
2022-08-17T12:47:22.342Z,48.10
2022-08-17T12:50:28.495Z,48.30
2022-08-17T12:53:01.925Z,48.00
2022-08-17T12:55:36.253Z,47.00
2022-08-17T12:58:04.227Z,46.30
2022-08-17T13:00:39.057Z,47.30
2022-08-17T13:03:12.886Z,48.00
2022-08-17T13:05:43.266Z,47.10
2022-08-17T13:08:20.391Z,47.00
2022-08-17T13:10:56.138Z,47.10
2022-08-17T13:13:27.031Z,47.00
2022-08-17T13:16:09.798Z,46.60
2022-08-17T13:18:39.347Z,46.20
2022-08-17T13:21:19.065Z,46.90
2022-08-17T13:24:14.953Z,47.80
2022-08-17T13:26:54.208Z,48.10
2022-08-17T13:29:34.186Z,48.90
2022-08-17T13:32:04.856Z,48.10
2022-08-17T13:35:13.217Z,47.50
2022-08-17T13:37:55.909Z,47.00
2022-08-17T13:40:23.372Z,46.40
2022-08-17T13:42:54.306Z,46.30
2022-08-17T13:45:35.651Z,46.70
2022-08-17T13:48:11.108Z,47.60
2022-08-17T13:51:05.118Z,46.70
2022-08-17T13:53:40.402Z,47.70
2022-08-17T13:56:37.877Z,46.80
2022-08-17T13:59:13.510Z,45.60
2022-08-17T14:01:44.309Z,45.50
2022-08-17T14:04:23.289Z,46.20
2022-08-17T14:06:55.293Z,45.40
2022-08-17T14:09:27.061Z,45.10
2022-08-17T14:11:58.294Z,46.40
2022-08-17T14:14:25.873Z,44.30
2022-08-17T14:16:54.446Z,43.70
2022-08-17T14:19:24.962Z,43.70
2022-08-17T14:21:56.683Z,44.20
2022-08-17T14:24:27.455Z,43.90
2022-08-17T14:26:56.169Z,44.60
2022-08-17T14:29:28.041Z,43.90
2022-08-17T14:31:57.117Z,43.60
2022-08-17T14:34:26.001Z,43.80
2022-08-17T14:36:53.441Z,42.90
2022-08-17T14:39:20.939Z,44.60
2022-08-17T14:41:48.500Z,44.00
2022-08-17T14:44:16.488Z,43.30
2022-08-17T14:46:45.009Z,43.40
2022-08-17T14:49:15.777Z,43.30
2022-08-17T14:51:44.319Z,43.10
2022-08-17T14:54:34.085Z,44.10
2022-08-17T14:57:23.655Z,44.10
2022-08-17T14:59:55.123Z,44.10
2022-08-17T15:02:29.969Z,44.20
2022-08-17T15:05:04.637Z,42.90
2022-08-17T15:07:32.768Z,43.20
2022-08-17T15:10:02.501Z,43.60
2022-08-17T15:12:33.673Z,43.30
2022-08-17T15:15:05.678Z,43.30
2022-08-17T15:17:43.684Z,43.80
2022-08-17T15:20:21.623Z,44.10
2022-08-17T15:22:56.298Z,43.80
2022-08-17T15:25:26.081Z,44.20
2022-08-17T15:27:54.312Z,44.90
2022-08-17T15:30:21.917Z,44.50
2022-08-17T15:32:53.922Z,44.90
2022-08-17T15:35:30.050Z,45.00
2022-08-17T15:38:09.750Z,44.60
2022-08-17T15:40:42.381Z,45.10
2022-08-17T15:43:17.621Z,44.80
2022-08-17T15:45:58.722Z,44.90
2022-08-17T15:48:42.223Z,45.30
2022-08-17T15:51:17.189Z,44.70
2022-08-17T15:53:49.833Z,44.60
2022-08-17T15:56:17.593Z,44.50
2022-08-17T15:58:47.017Z,44.50
2022-08-17T16:02:14.255Z,44.10
2022-08-17T16:04:09.948Z,43.50
2022-08-17T16:06:52.521Z,44.50
2022-08-17T16:09:20.065Z,44.20
2022-08-17T16:11:53.784Z,45.00
2022-08-17T16:14:24.285Z,46.00
2022-08-17T16:16:52.406Z,45.20
2022-08-17T16:19:19.718Z,44.60
2022-08-17T16:21:46.941Z,45.00
2022-08-17T16:24:14.967Z,44.70
2022-08-17T16:26:42.470Z,45.30
2022-08-17T16:29:10.356Z,45.70
2022-08-17T16:31:38.048Z,45.70
2022-08-17T16:34:17.304Z,46.20
2022-08-17T16:36:55.615Z,45.70
2022-08-17T16:39:29.685Z,45.10
2022-08-17T16:41:57.669Z,45.40
2022-08-17T16:44:29.150Z,45.20
2022-08-17T16:46:57.578Z,45.30
2022-08-17T16:49:36.694Z,45.50
2022-08-17T16:52:11.038Z,46.00
2022-08-17T16:54:44.077Z,46.10
2022-08-17T16:57:13.870Z,46.00
2022-08-17T16:59:44.883Z,46.20
2022-08-17T17:02:16.475Z,46.90
2022-08-17T17:04:52.459Z,46.80
2022-08-17T17:07:46.026Z,46.60
2022-08-17T17:10:17.286Z,47.40
2022-08-17T17:13:01.985Z,47.30
2022-08-17T17:16:03.813Z,47.50
2022-08-17T17:18:40.792Z,47.10
2022-08-17T17:21:14.521Z,48.20
2022-08-17T17:23:56.980Z,48.30
2022-08-17T17:26:52.980Z,48.90
2022-08-17T17:29:29.136Z,48.90
2022-08-17T17:33:00.082Z,49.30
2022-08-17T17:35:35.067Z,49.40
2022-08-17T17:38:12.400Z,49.90
2022-08-17T17:40:44.239Z,49.80
2022-08-17T17:43:37.711Z,50.00
2022-08-17T17:46:28.486Z,50.60
2022-08-17T17:48:57.714Z,51.10
2022-08-17T17:52:08.026Z,51.50
2022-08-17T17:54:44.192Z,51.90
2022-08-17T17:57:22.576Z,52.80
2022-08-17T18:00:17.241Z,53.30
2022-08-17T18:03:00.180Z,53.10
2022-08-17T18:06:05.204Z,53.00
2022-08-17T18:08:55.724Z,53.60
2022-08-17T18:11:58.994Z,53.00
2022-08-17T18:14:37.138Z,53.60
2022-08-17T18:17:06.035Z,54.10
2022-08-17T18:19:33.535Z,55.00
2022-08-17T18:22:14.221Z,56.60
2022-08-17T18:24:48.111Z,57.10
2022-08-17T18:27:20.892Z,58.10
2022-08-17T18:29:53.123Z,58.90
2022-08-17T18:32:38.784Z,59.20
2022-08-17T18:35:09.088Z,60.10
2022-08-17T18:37:42.877Z,59.10
2022-08-17T18:40:19.897Z,60.90
2022-08-17T18:43:03.147Z,62.40
2022-08-17T18:45:47.361Z,60.90
2022-08-17T18:48:21.054Z,59.30
2022-08-17T18:50:48.887Z,62.00
2022-08-17T18:53:34.924Z,57.40
2022-08-17T18:56:30.666Z,57.90
2022-08-17T18:59:19.900Z,58.20
2022-08-17T19:02:23.269Z,58.40
2022-08-17T19:05:07.702Z,59.40
2022-08-17T19:07:42.048Z,58.60
2022-08-17T19:10:19.503Z,58.50
2022-08-17T19:13:00.149Z,58.10
2022-08-17T19:15:36.053Z,58.40
2022-08-17T19:18:21.683Z,59.70
2022-08-17T19:21:16.720Z,59.10
2022-08-17T19:24:04.904Z,58.60
2022-08-17T19:26:50.756Z,60.40
2022-08-17T19:29:55.598Z,61.00
2022-08-17T19:32:30.722Z,58.60
2022-08-17T19:34:58.622Z,59.10
2022-08-17T19:37:51.283Z,58.40
2022-08-17T19:40:52.666Z,59.00
2022-08-17T19:43:35.719Z,60.00
2022-08-17T19:46:20.192Z,60.20
2022-08-17T19:49:02.889Z,60.40
2022-08-17T19:51:35.186Z,60.50
2022-08-17T19:54:16.557Z,60.70
2022-08-17T19:57:13.388Z,60.30
2022-08-17T20:00:02.171Z,60.80
2022-08-17T20:02:48.190Z,61.10
2022-08-17T20:05:23.272Z,61.10
2022-08-17T20:08:03.829Z,61.60
2022-08-17T20:10:56.214Z,60.80
2022-08-17T20:13:44.071Z,60.30
2022-08-17T20:16:12.790Z,61.90
2022-08-17T20:18:59.164Z,62.70
2022-08-17T20:21:40.895Z,62.70
2022-08-17T20:24:46.865Z,62.50
2022-08-17T20:27:31.644Z,62.70
2022-08-17T20:30:33.761Z,64.10
2022-08-17T20:33:02.890Z,64.70
2022-08-17T20:35:40.594Z,64.80
2022-08-17T20:38:30.125Z,64.10
2022-08-17T20:41:00.073Z,65.30
2022-08-17T20:43:33.304Z,63.40
2022-08-17T20:46:10.861Z,62.70
2022-08-17T20:48:50.997Z,62.10
2022-08-17T20:51:35.782Z,62.70
2022-08-17T20:54:29.049Z,62.70
2022-08-17T20:57:00.701Z,61.90
2022-08-17T20:59:28.794Z,62.00
2022-08-17T21:02:12.380Z,62.80
2022-08-17T21:05:06.875Z,62.50
2022-08-17T21:07:43.069Z,62.20
2022-08-17T21:10:17.274Z,63.70
2022-08-17T21:12:48.973Z,63.10
2022-08-17T21:15:29.735Z,63.80
2022-08-17T21:17:57.078Z,65.20
2022-08-17T21:20:33.379Z,64.80
2022-08-17T21:23:09.550Z,65.40
2022-08-17T21:26:03.059Z,63.70
2022-08-17T21:29:00.693Z,65.30
2022-08-17T21:31:38.549Z,64.20
2022-08-17T21:34:15.507Z,64.00
2022-08-17T21:36:44.806Z,64.80
2022-08-17T21:39:14.653Z,64.60
2022-08-17T21:41:56.069Z,65.00
2022-08-17T21:44:36.897Z,64.60
2022-08-17T21:47:28.659Z,66.60
2022-08-17T21:50:14.264Z,67.40
2022-08-17T21:52:43.798Z,67.60
2022-08-17T21:55:28.387Z,67.90
2022-08-17T21:58:13.468Z,68.00
2022-08-17T22:00:46.711Z,68.20
2022-08-17T22:03:26.694Z,68.70
2022-08-17T22:05:54.106Z,69.10
2022-08-17T22:08:24.811Z,68.60
2022-08-17T22:11:03.474Z,68.40
2022-08-17T22:13:30.914Z,67.70
2022-08-17T22:16:29.225Z,67.20
2022-08-17T22:18:59.120Z,67.70
2022-08-17T22:21:27.089Z,68.10
2022-08-17T22:24:07.516Z,68.10
2022-08-17T22:27:01.635Z,67.80
2022-08-17T22:29:44.586Z,67.40
2022-08-17T22:32:31.596Z,67.90
2022-08-17T22:35:37.910Z,67.80
2022-08-17T22:38:20.657Z,68.20
2022-08-17T22:40:51.331Z,68.30
2022-08-17T22:43:26.399Z,68.50
2022-08-17T22:45:56.458Z,68.50
2022-08-17T22:48:27.483Z,69.10
2022-08-17T22:51:23.490Z,68.20
2022-08-17T22:54:16.625Z,67.90
2022-08-17T22:57:28.199Z,67.50
2022-08-17T22:59:56.234Z,67.00
2022-08-17T23:02:28.479Z,65.90
2022-08-17T23:05:17.001Z,65.80
2022-08-17T23:07:46.412Z,66.50
2022-08-17T23:10:14.915Z,66.60
2022-08-17T23:12:42.361Z,67.10
2022-08-17T23:15:14.520Z,67.20
2022-08-17T23:17:42.278Z,67.40
2022-08-17T23:20:13.219Z,66.30
2022-08-17T23:22:52.419Z,66.30
2022-08-17T23:25:32.108Z,66.40
2022-08-17T23:28:01.980Z,66.20
2022-08-17T23:30:36.970Z,65.80
2022-08-17T23:33:07.641Z,66.40
2022-08-17T23:35:38.853Z,67.20
2022-08-17T23:38:13.114Z,67.50
2022-08-17T23:40:41.221Z,66.90
2022-08-17T23:43:23.777Z,66.70
2022-08-17T23:45:54.426Z,67.30
2022-08-17T23:48:28.619Z,66.50
2022-08-17T23:51:09.327Z,66.80
2022-08-17T23:53:40.481Z,67.60
2022-08-17T23:56:11.171Z,67.20
2022-08-17T23:58:42.556Z,67.40
